sensor_id;sensor_type;location;lat;lon;timestamp;temperature;humidity
10123;DHT22;5101;49.038;8.710;2023-04-06T00:01:30;3.20;82.90
10123;DHT22;5101;49.038;8.710;2023-04-06T00:03:56;3.10;82.80
10123;DHT22;5101;49.038;8.710;2023-04-06T00:06:21;3.10;82.70
10123;DHT22;5101;49.038;8.710;2023-04-06T00:08:47;2.90;82.80
10123;DHT22;5101;49.038;8.710;2023-04-06T00:11:12;2.80;82.90
10123;DHT22;5101;49.038;8.710;2023-04-06T00:13:38;2.80;83.20
10123;DHT22;5101;49.038;8.710;2023-04-06T00:16:04;2.80;83.60
10123;DHT22;5101;49.038;8.710;2023-04-06T00:18:31;2.90;83.90
10123;DHT22;5101;49.038;8.710;2023-04-06T00:20:57;2.90;84.00
10123;DHT22;5101;49.038;8.710;2023-04-06T00:23:22;2.90;84.10
10123;DHT22;5101;49.038;8.710;2023-04-06T00:25:48;2.80;84.00
10123;DHT22;5101;49.038;8.710;2023-04-06T00:28:13;2.90;84.30
10123;DHT22;5101;49.038;8.710;2023-04-06T00:30:41;2.80;84.30
10123;DHT22;5101;49.038;8.710;2023-04-06T00:33:06;2.80;84.60
10123;DHT22;5101;49.038;8.710;2023-04-06T00:35:32;2.80;84.70
10123;DHT22;5101;49.038;8.710;2023-04-06T00:37:57;2.80;84.80
10123;DHT22;5101;49.038;8.710;2023-04-06T00:40:23;2.80;85.00
10123;DHT22;5101;49.038;8.710;2023-04-06T00:42:49;2.80;85.30
10123;DHT22;5101;49.038;8.710;2023-04-06T00:45:15;2.70;85.90
10123;DHT22;5101;49.038;8.710;2023-04-06T00:47:40;2.80;86.00
10123;DHT22;5101;49.038;8.710;2023-04-06T00:50:06;2.70;85.90
10123;DHT22;5101;49.038;8.710;2023-04-06T00:52:33;2.70;86.20
10123;DHT22;5101;49.038;8.710;2023-04-06T00:54:59;2.70;86.30
10123;DHT22;5101;49.038;8.710;2023-04-06T00:57:25;2.60;86.20
10123;DHT22;5101;49.038;8.710;2023-04-06T00:59:52;2.60;86.00
10123;DHT22;5101;49.038;8.710;2023-04-06T01:02:18;2.60;86.10
10123;DHT22;5101;49.038;8.710;2023-04-06T01:04:43;2.60;86.50
10123;DHT22;5101;49.038;8.710;2023-04-06T01:07:09;2.60;86.90
10123;DHT22;5101;49.038;8.710;2023-04-06T01:09:35;2.50;87.20
10123;DHT22;5101;49.038;8.710;2023-04-06T01:12:00;2.50;87.20
10123;DHT22;5101;49.038;8.710;2023-04-06T01:14:26;2.60;87.20
10123;DHT22;5101;49.038;8.710;2023-04-06T01:16:52;2.60;87.30
10123;DHT22;5101;49.038;8.710;2023-04-06T01:19:18;2.50;87.40
10123;DHT22;5101;49.038;8.710;2023-04-06T01:21:43;2.50;87.40
10123;DHT22;5101;49.038;8.710;2023-04-06T01:24:10;2.50;87.50
10123;DHT22;5101;49.038;8.710;2023-04-06T01:26:36;2.50;87.60
10123;DHT22;5101;49.038;8.710;2023-04-06T01:29:02;2.50;87.80
10123;DHT22;5101;49.038;8.710;2023-04-06T01:31:29;2.50;88.00
10123;DHT22;5101;49.038;8.710;2023-04-06T01:33:54;2.50;88.10
10123;DHT22;5101;49.038;8.710;2023-04-06T01:36:21;2.40;88.10
10123;DHT22;5101;49.038;8.710;2023-04-06T01:38:46;2.50;88.30
10123;DHT22;5101;49.038;8.710;2023-04-06T01:41:12;2.40;88.50
10123;DHT22;5101;49.038;8.710;2023-04-06T01:43:37;2.40;88.90
10123;DHT22;5101;49.038;8.710;2023-04-06T01:46:03;2.40;89.20
10123;DHT22;5101;49.038;8.710;2023-04-06T01:48:29;2.40;89.80
10123;DHT22;5101;49.038;8.710;2023-04-06T01:50:55;2.40;90.00
10123;DHT22;5101;49.038;8.710;2023-04-06T01:53:21;2.40;90.10
10123;DHT22;5101;49.038;8.710;2023-04-06T01:55:46;2.40;90.20
10123;DHT22;5101;49.038;8.710;2023-04-06T01:58:13;2.30;90.20
10123;DHT22;5101;49.038;8.710;2023-04-06T02:00:39;2.30;90.50
10123;DHT22;5101;49.038;8.710;2023-04-06T02:03:05;2.30;90.20
10123;DHT22;5101;49.038;8.710;2023-04-06T02:05:33;2.30;90.20
10123;DHT22;5101;49.038;8.710;2023-04-06T02:08:07;2.40;90.20
10123;DHT22;5101;49.038;8.710;2023-04-06T02:10:33;2.30;90.20
10123;DHT22;5101;49.038;8.710;2023-04-06T02:12:59;2.30;90.40
10123;DHT22;5101;49.038;8.710;2023-04-06T02:15:25;2.40;90.40
10123;DHT22;5101;49.038;8.710;2023-04-06T02:17:51;2.30;90.60
10123;DHT22;5101;49.038;8.710;2023-04-06T02:20:17;2.40;90.30
10123;DHT22;5101;49.038;8.710;2023-04-06T02:22:42;2.30;90.20
10123;DHT22;5101;49.038;8.710;2023-04-06T02:25:08;2.30;90.30
10123;DHT22;5101;49.038;8.710;2023-04-06T02:27:34;2.30;90.30
10123;DHT22;5101;49.038;8.710;2023-04-06T02:29:59;2.30;90.20
10123;DHT22;5101;49.038;8.710;2023-04-06T02:32:25;2.30;90.30
10123;DHT22;5101;49.038;8.710;2023-04-06T02:34:51;2.30;90.40
10123;DHT22;5101;49.038;8.710;2023-04-06T02:37:17;2.30;90.40
10123;DHT22;5101;49.038;8.710;2023-04-06T02:39:42;2.30;90.40
10123;DHT22;5101;49.038;8.710;2023-04-06T02:42:08;2.30;90.50
10123;DHT22;5101;49.038;8.710;2023-04-06T02:44:34;2.30;90.50
10123;DHT22;5101;49.038;8.710;2023-04-06T02:46:59;2.20;90.40
10123;DHT22;5101;49.038;8.710;2023-04-06T02:49:25;2.30;90.40
10123;DHT22;5101;49.038;8.710;2023-04-06T02:51:50;2.30;90.40
10123;DHT22;5101;49.038;8.710;2023-04-06T02:54:16;2.30;90.40
10123;DHT22;5101;49.038;8.710;2023-04-06T02:56:41;2.30;90.40
10123;DHT22;5101;49.038;8.710;2023-04-06T02:59:07;2.30;90.40
10123;DHT22;5101;49.038;8.710;2023-04-06T03:01:32;2.30;90.40
10123;DHT22;5101;49.038;8.710;2023-04-06T03:03:58;2.30;90.40
10123;DHT22;5101;49.038;8.710;2023-04-06T03:06:24;2.30;90.40
10123;DHT22;5101;49.038;8.710;2023-04-06T03:08:49;2.30;90.50
10123;DHT22;5101;49.038;8.710;2023-04-06T03:11:15;2.30;90.50
10123;DHT22;5101;49.038;8.710;2023-04-06T03:13:41;2.30;90.60
10123;DHT22;5101;49.038;8.710;2023-04-06T03:16:06;2.30;90.50
10123;DHT22;5101;49.038;8.710;2023-04-06T03:18:32;2.30;90.50
10123;DHT22;5101;49.038;8.710;2023-04-06T03:20:58;2.40;90.60
10123;DHT22;5101;49.038;8.710;2023-04-06T03:23:25;2.40;90.60
10123;DHT22;5101;49.038;8.710;2023-04-06T03:25:51;2.40;90.60
10123;DHT22;5101;49.038;8.710;2023-04-06T03:28:16;2.40;90.70
10123;DHT22;5101;49.038;8.710;2023-04-06T03:30:42;2.40;90.80
10123;DHT22;5101;49.038;8.710;2023-04-06T03:33:08;2.40;90.80
10123;DHT22;5101;49.038;8.710;2023-04-06T03:35:33;2.40;90.80
10123;DHT22;5101;49.038;8.710;2023-04-06T03:37:59;2.40;90.80
10123;DHT22;5101;49.038;8.710;2023-04-06T03:40:24;2.40;90.90
10123;DHT22;5101;49.038;8.710;2023-04-06T03:42:50;2.40;91.00
10123;DHT22;5101;49.038;8.710;2023-04-06T03:45:16;2.40;91.10
10123;DHT22;5101;49.038;8.710;2023-04-06T03:47:41;2.40;91.10
10123;DHT22;5101;49.038;8.710;2023-04-06T03:50:07;2.40;91.20
10123;DHT22;5101;49.038;8.710;2023-04-06T03:52:35;2.40;91.10
10123;DHT22;5101;49.038;8.710;2023-04-06T03:55:01;2.40;91.10
10123;DHT22;5101;49.038;8.710;2023-04-06T03:57:26;2.30;90.90
10123;DHT22;5101;49.038;8.710;2023-04-06T03:59:52;2.30;90.80
10123;DHT22;5101;49.038;8.710;2023-04-06T04:02:18;2.20;90.80
10123;DHT22;5101;49.038;8.710;2023-04-06T04:04:43;2.20;90.80
10123;DHT22;5101;49.038;8.710;2023-04-06T04:07:09;2.20;90.80
10123;DHT22;5101;49.038;8.710;2023-04-06T04:09:34;2.20;91.10
10123;DHT22;5101;49.038;8.710;2023-04-06T04:12:00;2.30;91.00
10123;DHT22;5101;49.038;8.710;2023-04-06T04:14:26;2.20;91.00
10123;DHT22;5101;49.038;8.710;2023-04-06T04:16:51;2.20;91.00
10123;DHT22;5101;49.038;8.710;2023-04-06T04:19:17;2.20;91.00
10123;DHT22;5101;49.038;8.710;2023-04-06T04:21:44;2.20;91.00
10123;DHT22;5101;49.038;8.710;2023-04-06T04:24:10;2.20;91.10
10123;DHT22;5101;49.038;8.710;2023-04-06T04:26:36;2.10;91.10
10123;DHT22;5101;49.038;8.710;2023-04-06T04:29:02;2.20;91.10
10123;DHT22;5101;49.038;8.710;2023-04-06T04:31:27;2.10;91.10
10123;DHT22;5101;49.038;8.710;2023-04-06T04:33:53;2.10;91.10
10123;DHT22;5101;49.038;8.710;2023-04-06T04:36:18;2.10;91.10
10123;DHT22;5101;49.038;8.710;2023-04-06T04:38:44;2.10;91.20
10123;DHT22;5101;49.038;8.710;2023-04-06T04:41:10;2.10;91.30
10123;DHT22;5101;49.038;8.710;2023-04-06T04:43:35;2.10;91.50
10123;DHT22;5101;49.038;8.710;2023-04-06T04:46:01;2.10;91.50
10123;DHT22;5101;49.038;8.710;2023-04-06T04:48:26;2.00;91.60
10123;DHT22;5101;49.038;8.710;2023-04-06T04:50:52;2.00;91.60
10123;DHT22;5101;49.038;8.710;2023-04-06T04:53:17;2.00;91.70
10123;DHT22;5101;49.038;8.710;2023-04-06T04:55:43;2.00;91.80
10123;DHT22;5101;49.038;8.710;2023-04-06T04:58:09;2.00;91.90
10123;DHT22;5101;49.038;8.710;2023-04-06T05:00:36;2.00;92.00
10123;DHT22;5101;49.038;8.710;2023-04-06T05:03:03;1.90;91.90
10123;DHT22;5101;49.038;8.710;2023-04-06T05:05:30;1.90;91.90
10123;DHT22;5101;49.038;8.710;2023-04-06T05:07:56;1.90;91.90
10123;DHT22;5101;49.038;8.710;2023-04-06T05:10:22;1.90;92.20
10123;DHT22;5101;49.038;8.710;2023-04-06T05:12:47;1.90;92.00
10123;DHT22;5101;49.038;8.710;2023-04-06T05:15:13;1.90;92.10
10123;DHT22;5101;49.038;8.710;2023-04-06T05:17:39;1.90;92.30
10123;DHT22;5101;49.038;8.710;2023-04-06T05:20:05;2.00;92.40
10123;DHT22;5101;49.038;8.710;2023-04-06T05:22:31;1.90;92.50
10123;DHT22;5101;49.038;8.710;2023-04-06T05:24:56;1.90;92.30
10123;DHT22;5101;49.038;8.710;2023-04-06T05:27:22;1.90;92.20
10123;DHT22;5101;49.038;8.710;2023-04-06T05:29:48;2.00;92.20
10123;DHT22;5101;49.038;8.710;2023-04-06T05:32:14;2.00;92.20
10123;DHT22;5101;49.038;8.710;2023-04-06T05:34:39;2.00;92.30
10123;DHT22;5101;49.038;8.710;2023-04-06T05:37:05;2.10;92.50
10123;DHT22;5101;49.038;8.710;2023-04-06T05:39:31;2.10;92.50
10123;DHT22;5101;49.038;8.710;2023-04-06T05:41:56;2.10;92.50
10123;DHT22;5101;49.038;8.710;2023-04-06T05:44:22;2.20;92.50
10123;DHT22;5101;49.038;8.710;2023-04-06T05:46:47;2.20;92.60
10123;DHT22;5101;49.038;8.710;2023-04-06T05:49:13;2.20;92.70
10123;DHT22;5101;49.038;8.710;2023-04-06T05:51:38;2.20;92.80
10123;DHT22;5101;49.038;8.710;2023-04-06T05:54:04;2.30;92.80
10123;DHT22;5101;49.038;8.710;2023-04-06T05:56:30;2.30;92.80
10123;DHT22;5101;49.038;8.710;2023-04-06T05:58:57;2.30;92.80
10123;DHT22;5101;49.038;8.710;2023-04-06T06:01:22;2.30;92.80
10123;DHT22;5101;49.038;8.710;2023-04-06T06:03:48;2.40;92.90
10123;DHT22;5101;49.038;8.710;2023-04-06T06:06:14;2.50;92.80
10123;DHT22;5101;49.038;8.710;2023-04-06T06:08:39;2.60;92.70
10123;DHT22;5101;49.038;8.710;2023-04-06T06:11:05;2.60;92.60
10123;DHT22;5101;49.038;8.710;2023-04-06T06:13:31;2.70;92.60
10123;DHT22;5101;49.038;8.710;2023-04-06T06:15:57;2.80;92.50
10123;DHT22;5101;49.038;8.710;2023-04-06T06:18:22;2.90;92.40
10123;DHT22;5101;49.038;8.710;2023-04-06T06:20:48;2.90;92.30
10123;DHT22;5101;49.038;8.710;2023-04-06T06:23:14;3.00;92.30
10123;DHT22;5101;49.038;8.710;2023-04-06T06:25:39;3.10;92.10
10123;DHT22;5101;49.038;8.710;2023-04-06T06:28:05;3.40;92.00
10123;DHT22;5101;49.038;8.710;2023-04-06T06:30:31;3.30;91.70
10123;DHT22;5101;49.038;8.710;2023-04-06T06:32:56;3.40;91.50
10123;DHT22;5101;49.038;8.710;2023-04-06T06:35:22;3.50;91.30
10123;DHT22;5101;49.038;8.710;2023-04-06T06:37:48;3.60;91.20
10123;DHT22;5101;49.038;8.710;2023-04-06T06:40:13;3.70;91.00
10123;DHT22;5101;49.038;8.710;2023-04-06T06:42:41;3.80;91.20
10123;DHT22;5101;49.038;8.710;2023-04-06T06:45:07;3.90;91.00
10123;DHT22;5101;49.038;8.710;2023-04-06T06:47:33;4.00;90.50
10123;DHT22;5101;49.038;8.710;2023-04-06T06:49:59;4.00;90.10
10123;DHT22;5101;49.038;8.710;2023-04-06T06:52:24;4.10;89.60
10123;DHT22;5101;49.038;8.710;2023-04-06T06:54:50;4.30;89.00
10123;DHT22;5101;49.038;8.710;2023-04-06T06:57:15;4.30;88.20
10123;DHT22;5101;49.038;8.710;2023-04-06T06:59:41;4.40;87.70
10123;DHT22;5101;49.038;8.710;2023-04-06T07:02:07;4.50;87.40
10123;DHT22;5101;49.038;8.710;2023-04-06T07:04:32;4.60;86.80
10123;DHT22;5101;49.038;8.710;2023-04-06T07:06:58;4.70;86.30
10123;DHT22;5101;49.038;8.710;2023-04-06T07:09:24;4.70;85.70
10123;DHT22;5101;49.038;8.710;2023-04-06T07:11:49;4.90;85.40
10123;DHT22;5101;49.038;8.710;2023-04-06T07:14:16;5.00;85.30
10123;DHT22;5101;49.038;8.710;2023-04-06T07:16:41;5.10;85.20
10123;DHT22;5101;49.038;8.710;2023-04-06T07:19:07;5.30;85.20
10123;DHT22;5101;49.038;8.710;2023-04-06T07:21:34;5.50;85.10
10123;DHT22;5101;49.038;8.710;2023-04-06T07:24:00;5.80;84.50
10123;DHT22;5101;49.038;8.710;2023-04-06T07:26:27;6.10;83.80
10123;DHT22;5101;49.038;8.710;2023-04-06T07:28:52;6.50;83.40
10123;DHT22;5101;49.038;8.710;2023-04-06T07:31:18;7.00;82.40
10123;DHT22;5101;49.038;8.710;2023-04-06T07:33:44;7.60;81.20
10123;DHT22;5101;49.038;8.710;2023-04-06T07:36:10;8.20;79.80
10123;DHT22;5101;49.038;8.710;2023-04-06T07:38:35;8.80;77.60
10123;DHT22;5101;49.038;8.710;2023-04-06T07:41:01;9.30;75.10
10123;DHT22;5101;49.038;8.710;2023-04-06T07:43:29;9.90;72.20
10123;DHT22;5101;49.038;8.710;2023-04-06T07:45:55;10.50;67.80
10123;DHT22;5101;49.038;8.710;2023-04-06T07:48:22;11.00;64.40
10123;DHT22;5101;49.038;8.710;2023-04-06T07:50:48;11.60;61.60
10123;DHT22;5101;49.038;8.710;2023-04-06T07:53:14;12.20;57.90
10123;DHT22;5101;49.038;8.710;2023-04-06T07:55:39;12.70;54.20
10123;DHT22;5101;49.038;8.710;2023-04-06T07:58:05;13.30;51.10
10123;DHT22;5101;49.038;8.710;2023-04-06T08:00:31;13.90;48.70
10123;DHT22;5101;49.038;8.710;2023-04-06T08:02:56;14.40;46.20
10123;DHT22;5101;49.038;8.710;2023-04-06T08:05:22;14.80;44.00
10123;DHT22;5101;49.038;8.710;2023-04-06T08:07:48;15.00;42.40
10123;DHT22;5101;49.038;8.710;2023-04-06T08:10:13;15.50;41.10
10123;DHT22;5101;49.038;8.710;2023-04-06T08:12:39;15.60;40.00
10123;DHT22;5101;49.038;8.710;2023-04-06T08:15:05;15.80;38.90
10123;DHT22;5101;49.038;8.710;2023-04-06T08:17:34;16.10;37.60
10123;DHT22;5101;49.038;8.710;2023-04-06T08:20:00;16.40;36.60
10123;DHT22;5101;49.038;8.710;2023-04-06T08:22:26;16.80;35.70
10123;DHT22;5101;49.038;8.710;2023-04-06T08:24:51;17.20;34.90
10123;DHT22;5101;49.038;8.710;2023-04-06T08:27:17;17.70;34.10
10123;DHT22;5101;49.038;8.710;2023-04-06T08:29:43;18.10;33.20
10123;DHT22;5101;49.038;8.710;2023-04-06T08:32:08;18.60;32.70
10123;DHT22;5101;49.038;8.710;2023-04-06T08:34:34;19.00;32.30
10123;DHT22;5101;49.038;8.710;2023-04-06T08:37:00;19.40;31.60
10123;DHT22;5101;49.038;8.710;2023-04-06T08:39:26;19.90;31.10
10123;DHT22;5101;49.038;8.710;2023-04-06T08:41:53;20.30;31.00
10123;DHT22;5101;49.038;8.710;2023-04-06T08:44:22;20.50;30.30
10123;DHT22;5101;49.038;8.710;2023-04-06T08:46:48;20.60;29.80
10123;DHT22;5101;49.038;8.710;2023-04-06T08:49:16;20.60;29.50
10123;DHT22;5101;49.038;8.710;2023-04-06T08:51:42;20.70;29.10
10123;DHT22;5101;49.038;8.710;2023-04-06T08:54:07;20.80;28.70
10123;DHT22;5101;49.038;8.710;2023-04-06T08:56:36;21.00;28.40
10123;DHT22;5101;49.038;8.710;2023-04-06T08:59:03;21.30;28.40
10123;DHT22;5101;49.038;8.710;2023-04-06T09:01:29;21.60;28.50
10123;DHT22;5101;49.038;8.710;2023-04-06T09:03:58;22.00;28.20
10123;DHT22;5101;49.038;8.710;2023-04-06T09:06:26;22.30;27.80
10123;DHT22;5101;49.038;8.710;2023-04-06T09:08:52;22.50;27.30
10123;DHT22;5101;49.038;8.710;2023-04-06T09:11:18;22.50;26.90
10123;DHT22;5101;49.038;8.710;2023-04-06T09:13:53;22.60;26.50
10123;DHT22;5101;49.038;8.710;2023-04-06T09:16:19;22.90;26.30
10123;DHT22;5101;49.038;8.710;2023-04-06T09:18:46;22.90;26.30
10123;DHT22;5101;49.038;8.710;2023-04-06T09:21:12;23.10;26.00
10123;DHT22;5101;49.038;8.710;2023-04-06T09:23:38;23.30;25.80
10123;DHT22;5101;49.038;8.710;2023-04-06T09:26:08;23.50;25.30
10123;DHT22;5101;49.038;8.710;2023-04-06T09:28:53;23.30;24.50
10123;DHT22;5101;49.038;8.710;2023-04-06T09:31:24;22.90;24.40
10123;DHT22;5101;49.038;8.710;2023-04-06T09:33:51;22.60;24.20
10123;DHT22;5101;49.038;8.710;2023-04-06T09:36:28;22.10;24.40
10123;DHT22;5101;49.038;8.710;2023-04-06T09:38:59;22.00;24.30
10123;DHT22;5101;49.038;8.710;2023-04-06T09:44:01;22.20;24.30
10123;DHT22;5101;49.038;8.710;2023-04-06T09:46:27;22.40;24.60
10123;DHT22;5101;49.038;8.710;2023-04-06T09:48:55;22.30;23.70
10123;DHT22;5101;49.038;8.710;2023-04-06T09:51:22;22.50;23.30
10123;DHT22;5101;49.038;8.710;2023-04-06T09:53:52;22.50;22.90
10123;DHT22;5101;49.038;8.710;2023-04-06T09:56:23;21.60;22.70
10123;DHT22;5101;49.038;8.710;2023-04-06T09:58:53;21.90;23.00
10123;DHT22;5101;49.038;8.710;2023-04-06T10:01:22;22.30;23.00
10123;DHT22;5101;49.038;8.710;2023-04-06T10:06:45;22.80;22.60
10123;DHT22;5101;49.038;8.710;2023-04-06T10:09:13;22.80;22.50
10123;DHT22;5101;49.038;8.710;2023-04-06T10:11:39;22.70;22.30
10123;DHT22;5101;49.038;8.710;2023-04-06T10:14:06;22.80;22.10
10123;DHT22;5101;49.038;8.710;2023-04-06T10:16:32;22.70;21.80
10123;DHT22;5101;49.038;8.710;2023-04-06T10:19:05;22.80;21.90
10123;DHT22;5101;49.038;8.710;2023-04-06T10:21:32;22.80;21.70
10123;DHT22;5101;49.038;8.710;2023-04-06T10:24:00;22.60;21.60
10123;DHT22;5101;49.038;8.710;2023-04-06T10:26:26;22.50;21.40
10123;DHT22;5101;49.038;8.710;2023-04-06T10:28:52;22.40;21.70
10123;DHT22;5101;49.038;8.710;2023-04-06T10:31:28;22.70;21.70
10123;DHT22;5101;49.038;8.710;2023-04-06T10:33:55;22.80;21.20
10123;DHT22;5101;49.038;8.710;2023-04-06T10:36:23;22.60;21.20
10123;DHT22;5101;49.038;8.710;2023-04-06T10:38:55;22.70;21.30
10123;DHT22;5101;49.038;8.710;2023-04-06T10:41:21;22.90;21.50
10123;DHT22;5101;49.038;8.710;2023-04-06T10:43:55;22.80;21.60
10123;DHT22;5101;49.038;8.710;2023-04-06T10:46:32;23.20;21.20
10123;DHT22;5101;49.038;8.710;2023-04-06T10:49:10;23.20;21.10
10123;DHT22;5101;49.038;8.710;2023-04-06T10:51:38;23.30;21.60
10123;DHT22;5101;49.038;8.710;2023-04-06T10:54:06;23.40;21.90
10123;DHT22;5101;49.038;8.710;2023-04-06T10:56:32;23.40;21.90
10123;DHT22;5101;49.038;8.710;2023-04-06T10:59:01;23.30;21.70
10123;DHT22;5101;49.038;8.710;2023-04-06T11:01:27;23.30;22.00
10123;DHT22;5101;49.038;8.710;2023-04-06T11:03:56;23.50;22.10
10123;DHT22;5101;49.038;8.710;2023-04-06T11:06:27;22.90;21.80
10123;DHT22;5101;49.038;8.710;2023-04-06T11:08:55;22.70;21.70
10123;DHT22;5101;49.038;8.710;2023-04-06T11:11:22;22.20;22.20
10123;DHT22;5101;49.038;8.710;2023-04-06T11:13:51;22.10;22.20
10123;DHT22;5101;49.038;8.710;2023-04-06T11:16:28;22.00;22.30
10123;DHT22;5101;49.038;8.710;2023-04-06T11:18:56;22.00;22.60
10123;DHT22;5101;49.038;8.710;2023-04-06T11:21:39;22.00;22.70
10123;DHT22;5101;49.038;8.710;2023-04-06T11:24:23;22.00;22.00
10123;DHT22;5101;49.038;8.710;2023-04-06T11:29:17;21.70;21.70
10123;DHT22;5101;49.038;8.710;2023-04-06T11:31:46;21.20;21.60
10123;DHT22;5101;49.038;8.710;2023-04-06T11:34:16;21.00;21.70
10123;DHT22;5101;49.038;8.710;2023-04-06T11:36:42;21.10;22.00
10123;DHT22;5101;49.038;8.710;2023-04-06T11:39:08;20.80;21.90
10123;DHT22;5101;49.038;8.710;2023-04-06T11:41:34;20.70;22.00
10123;DHT22;5101;49.038;8.710;2023-04-06T11:44:01;20.80;22.60
10123;DHT22;5101;49.038;8.710;2023-04-06T11:46:30;20.70;22.70
10123;DHT22;5101;49.038;8.710;2023-04-06T11:49:00;20.80;23.00
10123;DHT22;5101;49.038;8.710;2023-04-06T11:51:26;20.70;23.10
10123;DHT22;5101;49.038;8.710;2023-04-06T11:53:52;20.60;23.30
10123;DHT22;5101;49.038;8.710;2023-04-06T11:56:30;20.60;23.50
10123;DHT22;5101;49.038;8.710;2023-04-06T11:58:58;20.40;23.10
10123;DHT22;5101;49.038;8.710;2023-04-06T12:01:25;20.20;22.90
10123;DHT22;5101;49.038;8.710;2023-04-06T12:03:52;20.00;22.90
10123;DHT22;5101;49.038;8.710;2023-04-06T12:06:18;19.90;23.10
10123;DHT22;5101;49.038;8.710;2023-04-06T12:08:45;19.90;23.50
10123;DHT22;5101;49.038;8.710;2023-04-06T12:11:10;20.00;23.90
10123;DHT22;5101;49.038;8.710;2023-04-06T12:13:36;19.80;23.90
10123;DHT22;5101;49.038;8.710;2023-04-06T12:16:02;19.50;24.10
10123;DHT22;5101;49.038;8.710;2023-04-06T12:18:28;19.40;24.20
10123;DHT22;5101;49.038;8.710;2023-04-06T12:20:53;19.30;24.30
10123;DHT22;5101;49.038;8.710;2023-04-06T12:23:19;19.20;24.00
10123;DHT22;5101;49.038;8.710;2023-04-06T12:25:45;19.20;23.90
10123;DHT22;5101;49.038;8.710;2023-04-06T12:28:11;19.20;24.00
10123;DHT22;5101;49.038;8.710;2023-04-06T12:30:37;19.10;23.70
10123;DHT22;5101;49.038;8.710;2023-04-06T12:33:02;19.20;23.50
10123;DHT22;5101;49.038;8.710;2023-04-06T12:35:28;19.20;23.50
10123;DHT22;5101;49.038;8.710;2023-04-06T12:37:54;19.40;23.60
10123;DHT22;5101;49.038;8.710;2023-04-06T12:40:20;19.40;24.00
10123;DHT22;5101;49.038;8.710;2023-04-06T12:42:46;19.40;24.20
10123;DHT22;5101;49.038;8.710;2023-04-06T12:45:12;19.40;24.20
10123;DHT22;5101;49.038;8.710;2023-04-06T12:47:37;19.50;24.50
10123;DHT22;5101;49.038;8.710;2023-04-06T12:50:04;19.50;24.80
10123;DHT22;5101;49.038;8.710;2023-04-06T12:52:31;19.40;24.90
10123;DHT22;5101;49.038;8.710;2023-04-06T12:54:57;19.50;25.20
10123;DHT22;5101;49.038;8.710;2023-04-06T12:57:25;19.60;25.60
10123;DHT22;5101;49.038;8.710;2023-04-06T12:59:51;19.40;25.20
10123;DHT22;5101;49.038;8.710;2023-04-06T13:02:18;19.30;24.80
10123;DHT22;5101;49.038;8.710;2023-04-06T13:04:45;19.30;24.90
10123;DHT22;5101;49.038;8.710;2023-04-06T13:07:11;19.20;25.00
10123;DHT22;5101;49.038;8.710;2023-04-06T13:09:37;19.00;25.10
10123;DHT22;5101;49.038;8.710;2023-04-06T13:12:02;19.00;25.00
10123;DHT22;5101;49.038;8.710;2023-04-06T13:14:28;19.20;24.90
10123;DHT22;5101;49.038;8.710;2023-04-06T13:16:54;19.30;24.90
10123;DHT22;5101;49.038;8.710;2023-04-06T13:19:20;19.20;24.90
10123;DHT22;5101;49.038;8.710;2023-04-06T13:21:45;19.20;24.90
10123;DHT22;5101;49.038;8.710;2023-04-06T13:24:11;19.20;25.00
10123;DHT22;5101;49.038;8.710;2023-04-06T13:26:36;18.80;25.00
10123;DHT22;5101;49.038;8.710;2023-04-06T13:29:02;18.50;24.80
10123;DHT22;5101;49.038;8.710;2023-04-06T13:31:28;18.50;24.90
10123;DHT22;5101;49.038;8.710;2023-04-06T13:33:54;18.50;25.30
10123;DHT22;5101;49.038;8.710;2023-04-06T13:36:20;18.50;25.60
10123;DHT22;5101;49.038;8.710;2023-04-06T13:38:46;18.30;25.40
10123;DHT22;5101;49.038;8.710;2023-04-06T13:41:23;18.20;26.10
10123;DHT22;5101;49.038;8.710;2023-04-06T13:43:49;18.10;25.70
10123;DHT22;5101;49.038;8.710;2023-04-06T13:46:15;18.10;25.80
10123;DHT22;5101;49.038;8.710;2023-04-06T13:48:42;18.10;25.80
10123;DHT22;5101;49.038;8.710;2023-04-06T13:51:09;18.20;25.80
10123;DHT22;5101;49.038;8.710;2023-04-06T13:53:35;18.10;25.80
10123;DHT22;5101;49.038;8.710;2023-04-06T13:56:00;18.10;25.90
10123;DHT22;5101;49.038;8.710;2023-04-06T13:58:26;18.00;26.10
10123;DHT22;5101;49.038;8.710;2023-04-06T14:00:51;18.00;26.10
10123;DHT22;5101;49.038;8.710;2023-04-06T14:03:18;17.90;25.80
10123;DHT22;5101;49.038;8.710;2023-04-06T14:05:44;17.80;25.80
10123;DHT22;5101;49.038;8.710;2023-04-06T14:08:10;17.70;26.50
10123;DHT22;5101;49.038;8.710;2023-04-06T14:10:40;17.60;26.20
10123;DHT22;5101;49.038;8.710;2023-04-06T14:13:06;17.40;26.40
10123;DHT22;5101;49.038;8.710;2023-04-06T14:15:32;17.50;26.30
10123;DHT22;5101;49.038;8.710;2023-04-06T14:17:57;17.40;26.30
10123;DHT22;5101;49.038;8.710;2023-04-06T14:20:23;17.40;26.30
10123;DHT22;5101;49.038;8.710;2023-04-06T14:22:48;17.30;26.40
10123;DHT22;5101;49.038;8.710;2023-04-06T14:25:14;17.10;26.20
10123;DHT22;5101;49.038;8.710;2023-04-06T14:27:42;17.10;26.50
10123;DHT22;5101;49.038;8.710;2023-04-06T14:30:08;17.10;26.60
10123;DHT22;5101;49.038;8.710;2023-04-06T14:32:33;17.00;26.70
10123;DHT22;5101;49.038;8.710;2023-04-06T14:34:59;16.90;26.90
10123;DHT22;5101;49.038;8.710;2023-04-06T14:37:25;16.90;27.20
10123;DHT22;5101;49.038;8.710;2023-04-06T14:39:51;16.80;27.30
10123;DHT22;5101;49.038;8.710;2023-04-06T14:42:17;16.80;27.20
10123;DHT22;5101;49.038;8.710;2023-04-06T14:44:42;16.70;27.00
10123;DHT22;5101;49.038;8.710;2023-04-06T14:47:10;16.60;26.90
10123;DHT22;5101;49.038;8.710;2023-04-06T14:49:36;16.50;26.60
10123;DHT22;5101;49.038;8.710;2023-04-06T14:52:01;16.40;26.40
10123;DHT22;5101;49.038;8.710;2023-04-06T14:54:27;16.30;26.00
10123;DHT22;5101;49.038;8.710;2023-04-06T14:56:52;16.40;25.60
10123;DHT22;5101;49.038;8.710;2023-04-06T14:59:18;16.30;25.30
10123;DHT22;5101;49.038;8.710;2023-04-06T15:01:43;16.30;25.30
10123;DHT22;5101;49.038;8.710;2023-04-06T15:04:09;16.30;25.00
10123;DHT22;5101;49.038;8.710;2023-04-06T15:06:35;16.30;25.10
10123;DHT22;5101;49.038;8.710;2023-04-06T15:09:00;16.20;25.10
10123;DHT22;5101;49.038;8.710;2023-04-06T15:11:26;16.10;25.00
10123;DHT22;5101;49.038;8.710;2023-04-06T15:13:51;16.10;24.80
10123;DHT22;5101;49.038;8.710;2023-04-06T15:16:17;16.10;24.50
10123;DHT22;5101;49.038;8.710;2023-04-06T15:18:42;16.10;24.40
10123;DHT22;5101;49.038;8.710;2023-04-06T15:21:08;16.10;24.40
10123;DHT22;5101;49.038;8.710;2023-04-06T15:23:34;16.10;24.40
10123;DHT22;5101;49.038;8.710;2023-04-06T15:26:00;16.10;24.40
10123;DHT22;5101;49.038;8.710;2023-04-06T15:28:26;16.00;24.50
10123;DHT22;5101;49.038;8.710;2023-04-06T15:30:53;16.00;24.60
10123;DHT22;5101;49.038;8.710;2023-04-06T15:33:20;16.00;24.50
10123;DHT22;5101;49.038;8.710;2023-04-06T15:35:47;16.00;24.50
10123;DHT22;5101;49.038;8.710;2023-04-06T15:38:13;16.00;24.50
10123;DHT22;5101;49.038;8.710;2023-04-06T15:40:48;15.90;24.50
10123;DHT22;5101;49.038;8.710;2023-04-06T15:43:14;16.00;24.50
10123;DHT22;5101;49.038;8.710;2023-04-06T15:45:41;15.80;24.40
10123;DHT22;5101;49.038;8.710;2023-04-06T15:48:07;15.60;24.50
10123;DHT22;5101;49.038;8.710;2023-04-06T15:50:33;15.40;24.60
10123;DHT22;5101;49.038;8.710;2023-04-06T15:52:59;15.30;25.00
10123;DHT22;5101;49.038;8.710;2023-04-06T15:55:25;15.40;25.40
10123;DHT22;5101;49.038;8.710;2023-04-06T15:57:50;15.40;25.50